Time;durP1;ratioP1;P1;durP2;ratioP2;P2;SDS_P1;SDS_P2;PMS_P1;PMS_P2;Temp;Humidity;BMP_temperature;BMP_pressure;BME280_temperature;BME280_humidity;BME280_pressure;Samples;Min_cycle;Max_cycle;Signal;HPM_P1;HPM_P2
2023/06/03 00:02:47;;;;;;;1.40;0.50;;;;;;;10.07;100.00;102289.66;10253575;28;20074;-70
2023/06/03 00:07:47;;;;;;;5.07;0.60;;;;;;;10.09;100.00;102307.63;10291831;28;20039;-70
2023/06/03 00:12:48;;;;;;;1.33;0.70;;;;;;;10.07;100.00;102311.66;10291500;28;20045;-68
2023/06/03 00:17:48;;;;;;;2.25;0.65;;;;;;;9.99;100.00;102306.41;10261967;28;20074;-67
2023/06/03 00:22:49;;;;;;;2.90;0.40;;;;;;;9.90;100.00;102311.25;10252332;28;20046;-69
2023/06/03 00:27:50;;;;;;;2.53;0.60;;;;;;;9.84;100.00;102318.50;10249859;28;20040;-69
2023/06/03 00:32:50;;;;;;;3.25;0.70;;;;;;;9.72;100.00;102309.19;10252235;28;20526;-69
2023/06/03 00:37:53;;;;;;;3.60;0.73;;;;;;;9.58;100.00;102321.25;10252246;28;20079;-67
2023/06/03 00:42:54;;;;;;;3.47;0.65;;;;;;;9.54;100.00;102325.50;10279598;28;20054;-68
2023/06/03 00:47:54;;;;;;;2.75;0.80;;;;;;;9.35;100.00;102300.53;10296847;28;20400;-67
2023/06/03 00:52:55;;;;;;;2.38;0.88;;;;;;;9.37;100.00;102323.16;10284900;28;20129;-69
2023/06/03 00:57:55;;;;;;;0.82;0.50;;;;;;;9.28;100.00;102324.41;10296237;28;20523;-68
2023/06/03 01:02:56;;;;;;;1.42;0.60;;;;;;;9.18;100.00;102324.00;10278734;28;20105;-68
2023/06/03 01:08:07;;;;;;;1.83;0.52;;;;;;;9.06;100.00;102332.84;10292213;28;20058;-69
2023/06/03 01:13:18;;;;;;;2.10;0.43;;;;;;;8.96;100.00;102331.56;10251935;28;20086;-68
2023/06/03 01:18:19;;;;;;;2.28;0.50;;;;;;;8.92;100.00;102335.78;10248992;28;20095;-69
2023/06/03 01:23:23;;;;;;;1.30;0.70;;;;;;;8.91;100.00;102337.69;10245496;28;20063;-68
2023/06/03 01:28:28;;;;;;;1.33;0.63;;;;;;;8.87;100.00;102333.66;10224061;28;20042;-68
2023/06/03 01:33:28;;;;;;;3.28;0.57;;;;;;;8.73;100.00;102332.78;10235626;28;20043;-68
2023/06/03 01:38:29;;;;;;;0.98;0.65;;;;;;;8.71;100.00;102345.03;10236149;28;20043;-68
2023/06/03 01:43:31;;;;;;;1.73;0.82;;;;;;;8.65;100.00;102346.69;10247135;28;20722;-68
2023/06/03 01:48:33;;;;;;;2.10;0.60;;;;;;;8.57;100.00;102355.94;10238481;28;20039;-68
2023/06/03 01:53:34;;;;;;;3.55;0.90;;;;;;;8.48;100.00;102352.53;10252364;28;20500;-68
2023/06/03 01:58:34;;;;;;;2.90;0.85;;;;;;;8.29;100.00;102340.38;10256147;28;20062;-69
2023/06/03 02:03:36;;;;;;;1.95;0.98;;;;;;;8.43;100.00;102362.41;10251806;28;20039;-68
2023/06/03 02:08:36;;;;;;;2.70;0.85;;;;;;;8.39;100.00;102352.84;10249981;28;20086;-68
2023/06/03 02:13:37;;;;;;;1.95;0.73;;;;;;;8.36;100.00;102359.59;10252710;28;20098;-68
2023/06/03 02:18:39;;;;;;;3.05;0.85;;;;;;;8.37;100.00;102361.31;10254046;28;20031;-68
2023/06/03 02:23:39;;;;;;;1.60;0.77;;;;;;;8.32;100.00;102349.25;10292626;28;20039;-68
2023/06/03 02:28:40;;;;;;;2.80;1.00;;;;;;;8.22;100.00;102353.19;10296271;28;20042;-69
2023/06/03 02:33:40;;;;;;;2.05;0.88;;;;;;;8.14;100.00;102355.25;10298957;28;20046;-68
2023/06/03 02:38:41;;;;;;;2.65;0.82;;;;;;;8.12;100.00;102340.91;10287071;28;20479;-68
2023/06/03 02:43:43;;;;;;;1.77;0.90;;;;;;;8.12;100.00;102354.59;10277331;28;20039;-68
2023/06/03 02:48:43;;;;;;;3.40;1.00;;;;;;;8.11;100.00;102351.03;10280002;28;20043;-68
2023/06/03 02:53:44;;;;;;;1.23;0.70;;;;;;;8.05;100.00;102351.84;10235273;28;20047;-68
2023/06/03 02:58:45;;;;;;;3.22;0.95;;;;;;;7.95;100.00;102349.44;10253844;28;20446;-68
2023/06/03 03:03:46;;;;;;;1.88;1.20;;;;;;;7.98;100.00;102357.28;10216741;28;20062;-68
2023/06/03 03:08:47;;;;;;;4.60;1.00;;;;;;;7.98;100.00;102357.28;10249041;28;20035;-68
2023/06/03 03:13:49;;;;;;;2.00;1.00;;;;;;;7.80;100.00;102341.34;10251059;28;20492;-67
2023/06/03 03:18:49;;;;;;;1.90;0.82;;;;;;;7.90;100.00;102354.69;10249268;28;20047;-68
2023/06/03 03:23:51;;;;;;;3.72;1.00;;;;;;;7.82;100.00;102341.97;10248767;28;20078;-67
2023/06/03 03:28:53;;;;;;;2.55;1.52;;;;;;;7.94;100.00;102360.59;10247680;28;20041;-68
2023/06/03 03:33:54;;;;;;;2.25;1.10;;;;;;;7.95;100.00;102363.16;10265011;28;20098;-68
2023/06/03 03:39:04;;;;;;;1.83;0.90;;;;;;;7.92;100.00;102352.59;10250617;28;20055;-68
2023/06/03 03:44:04;;;;;;;4.45;1.20;;;;;;;8.03;100.00;102364.91;10230332;28;20111;-69
2023/06/03 03:49:05;;;;;;;1.25;0.93;;;;;;;8.08;100.00;102362.38;10226912;28;20050;-68
2023/06/03 03:54:05;;;;;;;3.47;1.02;;;;;;;8.14;100.00;102361.59;10266959;28;20333;-68
2023/06/03 03:59:06;;;;;;;5.28;0.82;;;;;;;8.19;100.00;102364.59;10289191;28;20082;-69
2023/06/03 04:04:06;;;;;;;1.98;1.05;;;;;;;8.24;100.00;102373.03;10286335;28;20113;-68
2023/06/03 04:09:08;;;;;;;2.72;0.90;;;;;;;8.31;100.00;102374.97;10272257;28;20042;-67
2023/06/03 04:14:15;;;;;;;4.78;1.00;;;;;;;8.32;100.00;102371.19;10296447;28;20050;-68
2023/06/03 04:19:36;;;;;;;2.67;1.02;;;;;;;8.39;100.00;102378.44;10299611;28;20043;-67
2023/06/03 04:24:37;;;;;;;4.25;1.20;;;;;;;8.47;100.00;102383.78;10262608;28;20054;-68
2023/06/03 04:29:38;;;;;;;5.32;1.20;;;;;;;8.55;100.00;102376.41;10255347;28;20051;-68
2023/06/03 04:34:55;;;;;;;6.32;1.30;;;;;;;8.63;100.00;102382.56;10257866;28;20035;-68
2023/06/03 04:39:58;;;;;;;1.60;0.93;;;;;;;8.64;100.00;102365.06;10238739;28;20487;-67
2023/06/03 04:45:00;;;;;;;2.90;0.63;;;;;;;8.81;100.00;102378.44;10239919;28;20110;-68
2023/06/03 04:50:04;;;;;;;2.15;1.13;;;;;;;8.87;100.00;102380.34;10282121;28;20135;-69
2023/06/03 04:55:05;;;;;;;5.53;1.48;;;;;;;8.89;100.00;102375.50;10298930;28;20043;-68
2023/06/03 05:00:06;;;;;;;2.47;1.00;;;;;;;8.91;100.00;102367.91;10296092;28;20073;-67
2023/06/03 05:05:09;;;;;;;1.63;0.95;;;;;;;8.99;100.00;102378.69;10255615;28;20027;-67
2023/06/03 05:10:10;;;;;;;3.58;0.65;;;;;;;9.09;100.00;102365.41;10245293;28;20031;-69
2023/06/03 05:15:11;;;;;;;5.43;2.08;;;;;;;9.18;100.00;102373.47;10250648;28;20044;-67
2023/06/03 05:20:12;;;;;;;3.42;1.08;;;;;;;9.28;100.00;102373.88;10253694;28;20053;-68
2023/06/03 05:25:12;;;;;;;2.85;0.90;;;;;;;9.36;100.00;102376.44;10255487;28;20432;-67
2023/06/03 05:30:13;;;;;;;2.38;1.27;;;;;;;9.54;100.00;102369.47;10257495;28;20035;-69
2023/06/03 05:35:14;;;;;;;3.88;0.77;;;;;;;9.74;100.00;102377.75;10253799;28;20114;-68
2023/06/03 05:40:15;;;;;;;2.30;0.82;;;;;;;9.95;100.00;102379.41;10253179;28;20090;-68
2023/06/03 05:45:15;;;;;;;3.33;1.10;;;;;;;10.25;100.00;102371.50;10252763;28;20120;-68
2023/06/03 05:50:16;;;;;;;3.20;1.30;;;;;;;10.57;100.00;102369.75;10249616;28;20819;-67
2023/06/03 05:55:16;;;;;;;1.70;0.82;;;;;;;10.97;100.00;102375.06;10262512;28;20038;-69
2023/06/03 06:00:17;;;;;;;2.78;1.20;;;;;;;11.39;100.00;102369.94;10283943;28;20034;-68
2023/06/03 06:05:18;;;;;;;3.95;0.80;;;;;;;11.87;100.00;102365.75;10312513;28;20725;-68
2023/06/03 06:10:18;;;;;;;3.22;0.63;;;;;;;12.07;100.00;102371.94;10295115;28;20039;-69
2023/06/03 06:15:18;;;;;;;2.88;0.70;;;;;;;12.26;100.00;102371.97;10294439;28;20141;-68
2023/06/03 06:20:19;;;;;;;3.53;0.90;;;;;;;12.62;100.00;102368.34;10294549;28;20035;-71
2023/06/03 06:25:20;;;;;;;2.15;0.80;;;;;;;12.99;100.00;102368.28;10293003;28;20046;-69
2023/06/03 06:30:21;;;;;;;3.22;1.02;;;;;;;13.26;100.00;102363.22;10294746;28;20038;-71
2023/06/03 06:35:21;;;;;;;2.17;1.17;;;;;;;13.45;100.00;102377.84;10294158;28;20058;-68
2023/06/03 06:40:23;;;;;;;1.42;0.77;;;;;;;13.54;100.00;102370.06;10277248;28;20093;-67
2023/06/03 06:45:26;;;;;;;2.60;1.15;;;;;;;13.72;100.00;102361.66;10277452;28;20118;-69
2023/06/03 06:50:46;;;;;;;2.25;1.00;;;;;;;14.13;100.00;102353.47;10266839;28;20043;-69
2023/06/03 06:55:55;;;;;;;1.50;0.55;;;;;;;14.57;100.00;102361.38;10279181;28;20495;-69
2023/06/03 07:00:57;;;;;;;1.85;0.73;;;;;;;14.92;100.00;102352.94;10292877;28;20065;-68
2023/06/03 07:05:58;;;;;;;2.55;0.70;;;;;;;15.20;100.00;102348.47;10292655;28;20039;-69
2023/06/03 07:11:04;;;;;;;1.25;0.60;;;;;;;15.42;100.00;102346.66;10292008;28;20035;-69
2023/06/03 07:16:05;;;;;;;1.25;0.47;;;;;;;15.80;98.62;102341.47;10292369;28;20092;-69
2023/06/03 07:21:05;;;;;;;1.20;0.40;;;;;;;16.15;94.38;102332.81;10291597;28;20038;-68
2023/06/03 07:26:06;;;;;;;2.15;0.50;;;;;;;16.56;94.72;102347.25;10289969;28;20050;-69
2023/06/03 07:31:09;;;;;;;1.80;1.15;;;;;;;16.82;85.99;102319.78;10272372;28;20146;-69
2023/06/03 07:36:09;;;;;;;1.20;0.40;;;;;;;17.06;86.68;102339.78;10293147;28;20065;-69
2023/06/03 07:41:10;;;;;;;5.30;1.23;;;;;;;17.23;82.66;102321.03;10266450;28;20039;-68
2023/06/03 07:46:10;;;;;;;2.33;0.50;;;;;;;17.47;82.39;102338.22;10271262;28;20077;-69
2023/06/03 07:51:16;;;;;;;1.15;0.52;;;;;;;17.70;78.97;102330.63;10272437;28;20050;-69
2023/06/03 07:56:16;;;;;;;1.77;0.65;;;;;;;17.89;77.46;102317.97;10253594;28;20042;-68
2023/06/03 08:01:17;;;;;;;3.58;0.70;;;;;;;18.19;75.78;102327.63;10252053;28;20044;-69
2023/06/03 08:06:17;;;;;;;3.92;0.73;;;;;;;18.38;74.93;102318.81;10268232;28;20031;-69
2023/06/03 08:11:18;;;;;;;2.60;0.50;;;;;;;18.66;74.89;102332.28;10254249;28;20146;-69
2023/06/03 08:16:18;;;;;;;1.20;0.50;;;;;;;18.89;71.47;102313.41;10269410;28;20047;-69
2023/06/03 08:21:19;;;;;;;0.95;0.32;;;;;;;19.40;73.83;102321.84;10237758;28;20083;-69
2023/06/03 08:26:20;;;;;;;0.70;0.40;;;;;;;19.90;70.08;102311.75;10269009;28;20039;-68
2023/06/03 08:31:20;;;;;;;0.90;0.30;;;;;;;20.34;68.73;102308.28;10269870;28;20042;-68
2023/06/03 08:36:20;;;;;;;1.25;0.40;;;;;;;20.66;67.49;102312.66;10257528;28;20035;-69
2023/06/03 08:41:25;;;;;;;1.42;0.57;;;;;;;20.69;64.15;102289.69;10251262;28;20040;-69
2023/06/03 08:46:41;;;;;;;0.98;0.52;;;;;;;20.81;65.08;102308.91;10233486;28;20042;-69
2023/06/03 08:51:42;;;;;;;1.77;0.50;;;;;;;20.86;62.46;102288.47;10249805;28;20077;-69
2023/06/03 08:57:00;;;;;;;3.97;0.55;;;;;;;20.36;62.61;102292.06;10233819;28;20043;-68
2023/06/03 09:02:01;;;;;;;1.40;0.50;;;;;;;19.66;61.50;102286.38;10257818;28;20039;-68
2023/06/03 09:07:03;;;;;;;1.23;0.60;;;;;;;19.28;62.01;102276.59;10257664;28;20042;-68
2023/06/03 09:12:04;;;;;;;3.67;1.20;;;;;;;18.85;64.34;102295.53;10254304;28;20487;-69
2023/06/03 09:17:04;;;;;;;0.95;0.47;;;;;;;18.38;62.80;102296.50;10235030;28;20043;-68
2023/06/03 09:22:05;;;;;;;0.80;0.73;;;;;;;18.04;68.01;102327.53;10276839;28;20103;-68
2023/06/03 09:27:07;;;;;;;0.70;0.38;;;;;;;17.77;67.44;102320.06;10254049;28;20034;-68
2023/06/03 09:32:07;;;;;;;1.52;0.40;;;;;;;17.90;67.23;102302.94;10279614;28;20110;-68
2023/06/03 09:37:08;;;;;;;1.17;0.60;;;;;;;18.30;70.28;102323.78;10304368;28;20114;-68
2023/06/03 09:42:10;;;;;;;3.85;0.50;;;;;;;18.98;65.86;102294.19;10286777;28;20051;-68
2023/06/03 09:47:11;;;;;;;0.77;0.40;;;;;;;19.33;63.89;102298.97;10271331;28;20563;-68
2023/06/03 09:52:11;;;;;;;1.08;0.30;;;;;;;19.83;63.44;102293.63;10273987;28;20136;-68
2023/06/03 09:57:12;;;;;;;1.38;0.52;;;;;;;20.11;62.13;102287.41;10271491;28;20047;-68
2023/06/03 10:02:13;;;;;;;2.55;0.85;;;;;;;20.38;62.11;102274.16;10273861;28;20051;-69
2023/06/03 10:07:17;;;;;;;0.82;0.40;;;;;;;20.59;63.04;102295.34;10272820;28;20034;-69
2023/06/03 10:12:30;;;;;;;1.02;0.50;;;;;;;20.45;61.44;102255.09;10269633;28;20110;-68
2023/06/03 10:17:31;;;;;;;1.45;0.50;;;;;;;20.99;60.76;102287.00;10285372;28;20043;-68
2023/06/03 10:22:31;;;;;;;1.40;0.40;;;;;;;21.25;60.26;102276.41;10279842;28;20039;-68
2023/06/03 10:27:32;;;;;;;4.00;0.70;;;;;;;21.28;59.61;102278.63;10237766;28;20043;-69
2023/06/03 10:32:32;;;;;;;0.63;0.30;;;;;;;21.40;58.08;102281.91;10254659;28;20035;-69
2023/06/03 10:37:33;;;;;;;2.72;0.50;;;;;;;21.59;58.68;102278.41;10253786;28;20046;-69
2023/06/03 10:42:33;;;;;;;1.67;0.60;;;;;;;21.50;57.63;102270.63;10237351;28;20043;-67
2023/06/03 10:47:34;;;;;;;2.25;0.70;;;;;;;21.67;57.97;102266.53;10253251;28;20031;-67
2023/06/03 10:53:19;;;;;;;2.22;0.50;;;;;;;21.74;56.93;102261.41;10281794;28;20046;-69
2023/06/03 10:58:22;;;;;;;1.55;0.50;;;;;;;21.73;57.13;102251.34;10269298;28;20050;-68
2023/06/03 11:03:23;;;;;;;1.10;0.43;;;;;;;22.00;57.53;102255.53;10269747;28;20043;-69
2023/06/03 11:09:01;;;;;;;1.95;0.40;;;;;;;22.20;55.02;102244.06;10263761;28;20042;-68
2023/06/03 11:14:02;;;;;;;3.20;0.50;;;;;;;22.24;57.48;102255.53;10204585;28;20035;-71
2023/06/03 11:19:35;;;;;;;2.50;0.55;;;;;;;22.07;56.83;102244.78;10251676;28;20047;-69
2023/06/03 11:24:39;;;;;;;1.15;0.50;;;;;;;22.24;57.17;102259.19;10267440;28;20526;-69
2023/06/03 11:29:49;;;;;;;0.82;0.50;;;;;;;22.26;58.04;102251.31;10292400;28;20051;-67
2023/06/03 11:35:10;;;;;;;2.33;0.60;;;;;;;22.19;55.31;102248.00;10293223;28;20094;-70
2023/06/03 11:40:17;;;;;;;2.17;0.65;;;;;;;21.95;55.52;102240.44;10293216;28;20057;-69
2023/06/03 11:45:21;;;;;;;1.35;0.45;;;;;;;22.57;55.62;102242.44;10276985;28;20077;-69
2023/06/03 11:50:23;;;;;;;2.65;0.65;;;;;;;22.76;54.55;102240.50;10292848;28;20038;-70
2023/06/03 11:55:26;;;;;;;1.63;0.60;;;;;;;23.35;54.66;102237.31;10250597;28;20067;-70
2023/06/03 12:00:26;;;;;;;1.83;0.60;;;;;;;23.73;52.58;102223.09;10218754;28;20046;-69
2023/06/03 12:05:27;;;;;;;1.55;0.50;;;;;;;23.56;51.33;102202.06;10252766;28;20046;-70
2023/06/03 12:10:27;;;;;;;1.90;0.77;;;;;;;23.94;52.86;102218.78;10234599;28;20035;-71
2023/06/03 12:15:28;;;;;;;3.22;0.40;;;;;;;24.21;50.34;102205.84;10250733;28;20078;-70
2023/06/03 12:20:29;;;;;;;1.33;0.35;;;;;;;24.54;50.27;102214.97;10251158;28;20039;-71
2023/06/03 12:25:30;;;;;;;0.98;0.57;;;;;;;24.90;51.68;102211.25;10251476;28;20047;-76
2023/06/03 12:30:33;;;;;;;2.65;0.65;;;;;;;25.21;51.00;102220.97;10249949;28;20128;-71
2023/06/03 12:35:34;;;;;;;0.98;0.30;;;;;;;25.27;50.56;102202.78;10259234;28;20035;-72
2023/06/03 12:40:35;;;;;;;1.33;0.65;;;;;;;24.23;47.40;102090.97;10259483;28;20031;-69
2023/06/03 12:45:36;;;;;;;1.83;0.50;;;;;;;24.75;48.33;102195.59;10262628;28;20036;-71
2023/06/03 12:50:37;;;;;;;2.88;0.65;;;;;;;25.33;48.28;102185.41;10275574;28;20089;-70
2023/06/03 12:55:38;;;;;;;3.13;0.60;;;;;;;25.64;47.28;102189.34;10268169;28;20053;-70
2023/06/03 13:00:38;;;;;;;1.65;0.50;;;;;;;25.80;46.98;102184.09;10276896;28;20436;-73
2023/06/03 13:05:39;;;;;;;1.20;0.60;;;;;;;25.64;47.80;102200.63;10266495;28;20047;-69
2023/06/03 13:10:40;;;;;;;1.55;0.63;;;;;;;26.33;46.14;102183.06;10287697;28;20038;-70
2023/06/03 13:15:40;;;;;;;3.15;0.50;;;;;;;26.92;46.61;102183.44;10297358;28;20042;-68
2023/06/03 13:20:41;;;;;;;2.67;0.60;;;;;;;26.60;45.70;102175.50;10297145;28;20096;-71
2023/06/03 13:25:41;;;;;;;1.77;0.60;;;;;;;26.42;45.33;102171.78;10295464;28;20546;-70
2023/06/03 13:30:42;;;;;;;4.28;0.85;;;;;;;26.33;44.97;102172.59;10297154;28;20090;-69
2023/06/03 13:35:43;;;;;;;1.42;0.60;;;;;;;26.24;44.65;102168.13;10297758;28;20039;-70
2023/06/03 13:40:43;;;;;;;0.85;0.50;;;;;;;26.70;44.04;102147.72;10296759;28;20046;-70
2023/06/03 13:45:44;;;;;;;1.10;0.70;;;;;;;26.20;43.72;102134.09;10295506;28;20031;-70
2023/06/03 13:50:45;;;;;;;1.08;0.60;;;;;;;26.62;42.82;102140.09;10296395;28;20035;-71
2023/06/03 13:55:45;;;;;;;3.28;0.88;;;;;;;26.92;43.31;102134.56;10293600;28;20078;-71
2023/06/03 14:00:45;;;;;;;1.48;0.57;;;;;;;27.57;41.86;102129.69;10295223;28;20035;-71
2023/06/03 14:05:48;;;;;;;1.73;0.60;;;;;;;27.30;43.47;102140.28;10294141;28;20074;-70
2023/06/03 14:10:48;;;;;;;1.58;0.60;;;;;;;27.38;42.09;102145.09;10295328;28;20050;-70
2023/06/03 14:15:49;;;;;;;0.98;0.50;;;;;;;27.83;40.16;102125.91;10293626;28;20069;-70
2023/06/03 14:20:49;;;;;;;3.65;0.70;;;;;;;27.18;40.50;102129.69;10292504;28;20043;-70
2023/06/03 14:25:50;;;;;;;2.08;0.60;;;;;;;26.71;40.78;102109.84;10295376;28;20058;-70
2023/06/03 14:30:51;;;;;;;1.50;0.80;;;;;;;27.29;40.40;102130.16;10294649;28;20057;-71
2023/06/03 14:35:51;;;;;;;1.00;0.47;;;;;;;27.03;40.31;102116.09;10295288;28;20039;-71
2023/06/03 14:40:52;;;;;;;1.98;0.57;;;;;;;26.72;41.41;102110.69;10275934;28;20054;-71
2023/06/03 14:45:52;;;;;;;1.65;0.70;;;;;;;27.69;42.89;102126.16;10294773;28;20030;-72
2023/06/03 14:50:53;;;;;;;4.13;0.63;;;;;;;27.50;40.36;102123.75;10292682;28;20062;-73
2023/06/03 14:55:54;;;;;;;2.13;0.60;;;;;;;27.65;39.71;102113.88;10294123;28;20050;-73
2023/06/03 15:00:54;;;;;;;0.93;0.50;;;;;;;27.29;40.72;102112.38;10274382;28;20066;-71
2023/06/03 15:05:55;;;;;;;0.90;0.55;;;;;;;27.61;40.02;102110.06;10265650;28;20039;-71
2023/06/03 15:10:55;;;;;;;3.35;0.60;;;;;;;27.92;40.12;102113.38;10267708;28;20046;-72
2023/06/03 15:15:56;;;;;;;1.33;0.52;;;;;;;27.95;39.58;102095.72;10292339;28;20054;-70
2023/06/03 15:20:56;;;;;;;3.65;0.70;;;;;;;27.43;38.23;102087.53;10273900;28;20109;-73
2023/06/03 15:25:58;;;;;;;0.80;0.50;;;;;;;26.66;39.65;102095.88;10292046;28;20043;-71
2023/06/03 15:30:59;;;;;;;1.90;0.60;;;;;;;27.32;39.36;102089.88;10291890;28;20046;-71
2023/06/03 15:36:00;;;;;;;2.28;0.68;;;;;;;27.91;39.52;102082.59;10273833;28;20503;-72
2023/06/03 15:41:00;;;;;;;2.30;0.63;;;;;;;28.02;39.71;102092.34;10268016;28;20479;-72
2023/06/03 15:46:01;;;;;;;2.97;0.85;;;;;;;27.70;39.56;102093.84;10290341;28;20035;-72
2023/06/03 15:51:01;;;;;;;2.05;0.70;;;;;;;28.27;39.48;102092.47;10291311;28;20054;-72
2023/06/03 15:56:02;;;;;;;2.50;0.80;;;;;;;28.98;39.60;102086.63;10289855;28;20101;-72
2023/06/03 16:01:02;;;;;;;2.08;0.70;;;;;;;28.43;39.92;102087.84;10292396;28;20039;-72
2023/06/03 16:06:03;;;;;;;1.23;0.60;;;;;;;28.35;40.38;102080.25;10273842;28;20050;-71
2023/06/03 16:11:04;;;;;;;2.97;1.20;;;;;;;27.93;39.04;102069.75;10289254;28;20039;-71
2023/06/03 16:16:04;;;;;;;2.50;0.60;;;;;;;27.93;40.33;102080.28;10289216;28;20415;-72
2023/06/03 16:21:05;;;;;;;1.55;0.65;;;;;;;27.87;41.29;102085.28;10289316;28;20058;-72
2023/06/03 16:26:06;;;;;;;0.82;0.60;;;;;;;26.71;41.72;102090.09;10289767;28;20114;-72
2023/06/03 16:31:07;;;;;;;1.42;0.60;;;;;;;26.70;42.62;102091.22;10267823;28;20404;-72
2023/06/03 16:36:07;;;;;;;3.58;0.90;;;;;;;26.07;42.23;102098.41;10288933;28;20039;-71
2023/06/03 16:41:08;;;;;;;1.83;0.43;;;;;;;26.06;41.91;102091.91;10288796;28;20114;-72
2023/06/03 16:46:08;;;;;;;2.22;0.70;;;;;;;25.57;42.69;102096.78;10288863;28;20035;-72
2023/06/03 16:51:09;;;;;;;2.78;0.45;;;;;;;24.58;44.17;102105.34;10288567;28;20038;-72
2023/06/03 16:56:10;;;;;;;2.13;0.45;;;;;;;22.48;47.27;102099.19;10288938;28;20114;-67
2023/06/03 17:01:11;;;;;;;2.60;0.70;;;;;;;22.06;49.62;102116.94;10289577;28;20061;-74
2023/06/03 17:06:11;;;;;;;2.17;0.50;;;;;;;20.95;50.38;102121.56;10287674;28;20113;-72
2023/06/03 17:11:12;;;;;;;2.30;0.52;;;;;;;20.76;51.76;102136.28;10285690;28;20054;-69
2023/06/03 17:16:12;;;;;;;1.00;0.50;;;;;;;20.68;51.58;102142.50;10259384;28;21120;-69
2023/06/03 17:21:13;;;;;;;1.98;0.55;;;;;;;20.32;53.41;102141.91;10290930;28;20610;-71
2023/06/03 17:26:14;;;;;;;1.33;0.60;;;;;;;19.69;53.24;102146.09;10296166;28;20046;-69
2023/06/03 17:31:15;;;;;;;3.70;0.47;;;;;;;19.34;55.66;102153.44;10293909;28;20038;-69
2023/06/03 17:36:15;;;;;;;2.22;0.60;;;;;;;19.04;56.75;102159.94;10289746;28;20039;-69
2023/06/03 17:41:16;;;;;;;1.30;0.50;;;;;;;18.72;57.48;102152.63;10277627;28;20034;-70
2023/06/03 17:46:17;;;;;;;2.00;0.70;;;;;;;18.54;59.04;102159.63;10294142;28;20059;-71
2023/06/03 17:51:17;;;;;;;1.13;0.40;;;;;;;18.39;60.61;102162.38;10294057;28;20399;-65
2023/06/03 17:56:17;;;;;;;2.90;0.70;;;;;;;18.16;59.64;102163.72;10296530;28;20058;-69
2023/06/03 18:01:18;;;;;;;1.88;0.60;;;;;;;18.04;61.05;102171.47;10270880;28;20416;-67
2023/06/03 18:06:19;;;;;;;4.10;0.70;;;;;;;17.87;62.03;102172.53;10294090;28;20058;-67
2023/06/03 18:11:21;;;;;;;2.47;0.88;;;;;;;17.84;63.45;102180.56;10295305;28;20035;-67
2023/06/03 18:16:21;;;;;;;1.50;0.70;;;;;;;17.70;65.36;102185.78;10292806;28;20078;-70
2023/06/03 18:21:22;;;;;;;0.70;0.50;;;;;;;17.47;64.31;102165.63;10294423;28;20106;-68
2023/06/03 18:26:23;;;;;;;1.00;0.43;;;;;;;17.34;64.35;102177.19;10295106;28;20039;-68
2023/06/03 18:31:24;;;;;;;4.07;0.77;;;;;;;17.14;64.50;102181.53;10269543;28;20074;-69
2023/06/03 18:36:24;;;;;;;1.63;0.47;;;;;;;16.96;64.46;102187.50;10287376;28;20038;-68
2023/06/03 18:41:25;;;;;;;5.60;0.47;;;;;;;16.69;66.04;102177.22;10294102;28;20034;-70
2023/06/03 18:46:25;;;;;;;1.33;0.45;;;;;;;16.60;66.90;102189.94;10276435;28;20399;-70
2023/06/03 18:51:26;;;;;;;1.77;0.82;;;;;;;16.39;67.77;102188.91;10292669;28;20041;-70
2023/06/03 18:56:27;;;;;;;2.67;0.52;;;;;;;16.31;69.78;102204.09;10280706;28;20070;-69
2023/06/03 19:01:27;;;;;;;0.85;0.60;;;;;;;16.14;71.62;102220.00;10290269;28;20034;-70
2023/06/03 19:06:28;;;;;;;1.80;0.52;;;;;;;15.84;70.87;102196.28;10290707;28;20030;-69
2023/06/03 19:11:30;;;;;;;1.17;0.38;;;;;;;15.75;72.34;102214.50;10273179;28;20031;-69
2023/06/03 19:16:31;;;;;;;1.40;0.63;;;;;;;15.57;72.90;102220.31;10291569;28;20039;-69
2023/06/03 19:21:31;;;;;;;2.40;0.88;;;;;;;15.35;74.92;102212.75;10288448;28;20035;-68
2023/06/03 19:26:32;;;;;;;1.20;0.75;;;;;;;15.32;74.38;102218.84;10296803;28;20039;-69
2023/06/03 19:31:32;;;;;;;2.00;0.50;;;;;;;15.16;76.20;102231.63;10267163;28;20054;-69
2023/06/03 19:36:33;;;;;;;3.40;1.17;;;;;;;14.99;76.44;102239.94;10280779;28;20067;-71
2023/06/03 19:41:34;;;;;;;1.70;0.65;;;;;;;14.82;77.79;102227.97;10295817;28;20046;-69
2023/06/03 19:46:36;;;;;;;1.52;0.50;;;;;;;14.56;79.97;102221.97;10285114;28;20042;-70
2023/06/03 19:51:36;;;;;;;1.05;0.50;;;;;;;14.49;81.19;102237.84;10265837;28;20038;-69
2023/06/03 19:56:37;;;;;;;1.58;0.50;;;;;;;14.38;83.44;102241.53;10284025;28;20067;-69
2023/06/03 20:01:37;;;;;;;5.47;1.33;;;;;;;14.19;85.72;102255.53;10287977;28;20041;-70
2023/06/03 20:06:40;;;;;;;1.50;0.60;;;;;;;14.06;88.39;102258.59;10291240;28;20031;-70
2023/06/03 20:11:40;;;;;;;2.55;0.65;;;;;;;13.92;90.43;102261.63;10274472;28;20110;-71
2023/06/03 20:16:41;;;;;;;1.65;0.70;;;;;;;13.54;93.66;102220.66;10250415;28;20074;-69
2023/06/03 20:21:42;;;;;;;0.82;0.55;;;;;;;13.68;92.26;102266.34;10249805;28;20139;-70
2023/06/03 20:26:43;;;;;;;3.22;0.90;;;;;;;13.57;94.07;102269.13;10263889;28;20047;-69
2023/06/03 20:31:44;;;;;;;2.30;0.70;;;;;;;13.50;96.71;102272.00;10247945;28;20576;-70
2023/06/03 20:36:46;;;;;;;2.45;0.85;;;;;;;13.42;97.20;102261.28;10248044;28;20039;-70
2023/06/03 20:41:47;;;;;;;3.45;0.60;;;;;;;13.35;98.17;102261.38;10241083;28;20093;-70
2023/06/03 20:46:47;;;;;;;1.33;0.60;;;;;;;13.26;100.00;102260.03;10254947;28;20484;-71
2023/06/03 20:51:47;;;;;;;1.98;0.60;;;;;;;13.18;100.00;102271.44;10249466;28;20039;-70
2023/06/03 20:56:48;;;;;;;1.45;0.60;;;;;;;13.11;100.00;102274.31;10254437;28;20043;-70
2023/06/03 21:01:49;;;;;;;2.45;0.50;;;;;;;13.02;100.00;102289.56;10268902;28;20045;-70
2023/06/03 21:06:49;;;;;;;2.03;0.80;;;;;;;12.94;100.00;102288.00;10271561;28;20042;-70
2023/06/03 21:11:50;;;;;;;2.30;0.63;;;;;;;12.76;100.00;102275.06;10292056;28;20070;-70
2023/06/03 21:16:51;;;;;;;2.92;1.27;;;;;;;12.63;100.00;102289.91;10294165;28;20034;-71
2023/06/03 21:21:51;;;;;;;5.47;0.88;;;;;;;12.46;100.00;102298.00;10295854;28;20046;-71
2023/06/03 21:26:52;;;;;;;2.92;0.75;;;;;;;12.29;100.00;102296.94;10285002;28;20086;-71
2023/06/03 21:31:52;;;;;;;2.28;0.93;;;;;;;12.19;100.00;102310.44;10275244;28;20043;-69
2023/06/03 21:36:53;;;;;;;4.80;1.20;;;;;;;12.05;100.00;102304.22;10287455;28;20042;-68
2023/06/03 21:41:53;;;;;;;4.07;1.13;;;;;;;11.90;100.00;102305.41;10254950;28;20031;-69
2023/06/03 21:46:54;;;;;;;2.33;1.23;;;;;;;11.81;100.00;102306.78;10253654;28;20039;-69
2023/06/03 21:51:54;;;;;;;4.32;1.27;;;;;;;11.73;100.00;102307.06;10254626;28;20473;-69
2023/06/03 21:56:55;;;;;;;3.10;1.30;;;;;;;11.65;100.00;102307.34;10236206;28;20039;-70
2023/06/03 22:01:56;;;;;;;4.25;1.58;;;;;;;11.50;100.00;102303.03;10255350;28;20039;-69
2023/06/03 22:06:56;;;;;;;2.92;1.45;;;;;;;11.40;100.00;102305.44;10249616;28;20054;-70
2023/06/03 22:11:57;;;;;;;2.33;1.60;;;;;;;11.17;100.00;102283.16;10255369;28;20050;-70
2023/06/03 22:16:57;;;;;;;8.23;2.03;;;;;;;11.21;100.00;102307.28;10252518;28;20047;-70
2023/06/03 22:21:58;;;;;;;4.85;1.60;;;;;;;11.18;100.00;102302.22;10252170;28;20094;-70
2023/06/03 22:26:59;;;;;;;4.10;1.95;;;;;;;11.11;100.00;102313.28;10253378;28;20066;-70
2023/06/03 22:31:59;;;;;;;5.00;2.15;;;;;;;11.03;100.00;102316.31;10255386;28;20046;-69
2023/06/03 22:37:00;;;;;;;4.07;2.20;;;;;;;11.01;100.00;102321.22;10260513;28;20071;-69
2023/06/03 22:42:00;;;;;;;6.85;2.75;;;;;;;10.93;100.00;102299.44;10275418;28;20050;-69
2023/06/03 22:47:01;;;;;;;6.15;2.35;;;;;;;10.97;100.00;102313.63;10290256;28;20484;-70
2023/06/03 22:52:01;;;;;;;6.63;2.78;;;;;;;10.95;100.00;102319.34;10257018;28;20046;-69
2023/06/03 22:57:01;;;;;;;5.15;3.05;;;;;;;10.91;100.00;102326.34;10255827;28;20501;-69
2023/06/03 23:02:02;;;;;;;7.60;2.50;;;;;;;10.90;100.00;102321.94;10264618;28;20086;-69
2023/06/03 23:07:03;;;;;;;6.63;3.13;;;;;;;10.84;100.00;102328.31;10251442;28;20044;-69